Time;durP1;ratioP1;P1;durP2;ratioP2;P2;SDS_P1;SDS_P2;PMS_P1;PMS_P2;Temp;Humidity;BMP_temperature;BMP_pressure;BME280_temperature;BME280_humidity;BME280_pressure;Samples;Min_cycle;Max_cycle;Signal;HPM_P1;HPM_P2
2022/08/03 00:01:04;;;;;;;;;;;;;;;;;;5040528;28;20364;-68
2022/08/03 00:03:29;;;;;;;;;;;;;;;;;;5039572;28;19931;-69
2022/08/03 00:05:55;;;;;;;;;;;;;;;;;;5038729;28;19924;-69
2022/08/03 00:08:21;;;;;;;;;;;;;;;;;;5038483;28;20003;-68
2022/08/03 00:10:47;;;;;;;;;;;;;;;;;;5033619;28;19921;-69
2022/08/03 00:13:12;;;;;;;;;;;;;;;;;;5040500;28;19981;-69
2022/08/03 00:15:38;;;;;;;;;;;;;;;;;;5036792;28;19921;-69
2022/08/03 00:18:03;;;;;;;;;;;;;;;;;;5032266;28;20524;-69
2022/08/03 00:20:29;;;;;;;;;;;;;;;;;;5028010;28;19931;-69
2022/08/03 00:22:54;;;;;;;;;;;;;;;;;;5037624;28;20283;-69
2022/08/03 00:25:20;;;;;;;;;;;;;;;;;;5024052;28;19928;-67
2022/08/03 00:27:45;;;;;;;;;;;;;;;;;;5029029;28;20443;-70
2022/08/03 00:30:10;;;;;;;;;;;;;;;;;;5038486;28;20610;-69
2022/08/03 00:32:36;;;;;;;;;;;;;;;;;;5040704;28;20043;-68
2022/08/03 00:35:02;;;;;;;;;;;;;;;;;;5039710;28;19920;-69
2022/08/03 00:37:27;;;;;;;;;;;;;;;;;;5036065;28;19928;-69
2022/08/03 00:39:53;;;;;;;;;;;;;;;;;;5039280;28;20665;-69
2022/08/03 00:42:19;;;;;;;;;;;;;;;;;;5035180;28;20277;-69
2022/08/03 00:44:44;;;;;;;;;;;;;;;;;;5039465;28;19921;-68
2022/08/03 00:47:10;;;;;;;;;;;;;;;;;;5033363;28;19980;-69
2022/08/03 00:49:35;;;;;;;;;;;;;;;;;;5040769;28;19927;-68
2022/08/03 00:52:00;;;;;;;;;;;;;;;;;;5022508;28;19920;-68
2022/08/03 00:54:26;;;;;;;;;;;;;;;;;;5037779;28;20388;-69
2022/08/03 00:56:51;;;;;;;;;;;;;;;;;;5033767;28;20292;-69
2022/08/03 00:59:16;;;;;;;;;;;;;;;;;;5039061;28;19920;-69
2022/08/03 01:01:42;;;;;;;;;;;;;;;;;;5026081;28;20790;-69
2022/08/03 01:04:07;;;;;;;;;;;;;;;;;;5027555;28;20676;-69
2022/08/03 01:06:32;;;;;;;;;;;;;;;;;;5040821;28;20071;-67
2022/08/03 01:08:58;;;;;;;;;;;;;;;;;;5039835;28;19924;-68
2022/08/03 01:11:23;;;;;;;;;;;;;;;;;;5025088;28;19923;-69
2022/08/03 01:13:49;;;;;;;;;;;;;;;;;;5037762;28;20368;-67
2022/08/03 01:16:14;;;;;;;;;;;;;;;;;;5037342;28;20534;-69
2022/08/03 01:18:40;;;;;;;;;;;;;;;;;;5036820;28;20384;-68
2022/08/03 01:21:05;;;;;;;;;;;;;;;;;;5038213;28;19967;-68
2022/08/03 01:23:31;;;;;;;;;;;;;;;;;;5037774;28;19973;-70
2022/08/03 01:25:57;;;;;;;;;;;;;;;;;;5036112;28;19917;-69
2022/08/03 01:28:22;;;;;;;;;;;;;;;;;;5039001;28;19932;-70
2022/08/03 01:30:48;;;;;;;;;;;;;;;;;;5044858;28;19963;-69
2022/08/03 01:33:16;;;;;;;;;;;;;;;;;;5035465;28;20495;-69
2022/08/03 01:35:41;;;;;;;;;;;;;;;;;;5037481;28;20444;-68
2022/08/03 01:38:07;;;;;;;;;;;;;;;;;;5035648;28;19927;-69
2022/08/03 01:40:32;;;;;;;;;;;;;;;;;;5036619;28;19921;-69
2022/08/03 01:42:57;;;;;;;;;;;;;;;;;;5038093;28;19927;-69
2022/08/03 01:45:23;;;;;;;;;;;;;;;;;;5039401;22;19927;-92
2022/08/03 01:47:53;;;;;;;;;;;;;;;;;;4989419;28;19928;-91
2022/08/03 01:50:27;;;;;;;;;;;;;;;;;;4978052;28;19914;-92
2022/08/03 01:52:53;;;;;;;;;;;;;;;;;;4997683;28;19919;-92
2022/08/03 01:55:19;;;;;;;;;;;;;;;;;;4984293;28;20053;-91
2022/08/03 01:57:47;;;;;;;;;;;;;;;;;;4968734;28;19999;-92
2022/08/03 02:00:20;;;;;;;;;;;;;;;;;;4984288;28;19917;-91
2022/08/03 02:03:16;;;;;;;;;;;;;;;;;;4999415;28;19920;-89
2022/08/03 02:05:59;;;;;;;;;;;;;;;;;;4994210;28;20018;-92
2022/08/03 02:08:34;;;;;;;;;;;;;;;;;;5042156;28;20531;-89
2022/08/03 02:10:59;;;;;;;;;;;;;;;;;;4987138;28;19923;-90
2022/08/03 02:13:53;;;;;;;;;;;;;;;;;;4981321;28;19971;-91
2022/08/03 02:16:19;;;;;;;;;;;;;;;;;;4992774;28;20052;-91
2022/08/03 02:19:05;;;;;;;;;;;;;;;;;;4993957;28;19930;-93
2022/08/03 02:21:37;;;;;;;;;;;;;;;;;;4964669;28;19927;-93
2022/08/03 02:24:04;;;;;;;;;;;;;;;;;;4985235;28;20356;-90
2022/08/03 02:26:29;;;;;;;;;;;;;;;;;;4976097;28;19915;-92
2022/08/03 02:28:58;;;;;;;;;;;;;;;;;;4992211;28;20000;-90
2022/08/03 02:31:25;;;;;;;;;;;;;;;;;;4987424;28;19938;-91
2022/08/03 02:34:04;;;;;;;;;;;;;;;;;;4990058;28;20316;-93
2022/08/03 02:36:32;;;;;;;;;;;;;;;;;;4975596;28;19976;-92
2022/08/03 02:39:06;;;;;;;;;;;;;;;;;;4992769;28;19918;-92
2022/08/03 02:41:32;;;;;;;;;;;;;;;;;;4980323;28;19920;-89
2022/08/03 02:43:57;;;;;;;;;;;;;;;;;;4993207;28;20324;-92
2022/08/03 02:46:26;;;;;;;;;;;;;;;;;;4991491;28;19982;-91
2022/08/03 02:48:51;;;;;;;;;;;;;;;;;;4959028;28;19948;-90
2022/08/03 02:51:16;;;;;;;;;;;;;;;;;;4997395;28;19940;-91
2022/08/03 02:53:42;;;;;;;;;;;;;;;;;;4997355;28;19937;-94
2022/08/03 02:56:18;;;;;;;;;;;;;;;;;;4989911;28;19922;-90
2022/08/03 02:58:43;;;;;;;;;;;;;;;;;;4977418;28;20019;-89
2022/08/03 03:01:12;;;;;;;;;;;;;;;;;;4997957;28;19925;-91
2022/08/03 03:03:38;;;;;;;;;;;;;;;;;;4965977;28;20006;-92
2022/08/03 03:06:03;;;;;;;;;;;;;;;;;;4975373;28;19946;-93
2022/08/03 03:08:40;;;;;;;;;;;;;;;;;;4984698;28;19915;-91
2022/08/03 03:11:05;;;;;;;;;;;;;;;;;;4988904;28;19926;-92
2022/08/03 03:13:30;;;;;;;;;;;;;;;;;;4969727;28;19964;-90
2022/08/03 03:16:06;;;;;;;;;;;;;;;;;;4986353;28;19914;-91
2022/08/03 03:18:32;;;;;;;;;;;;;;;;;;4993376;28;19922;-91
2022/08/03 03:21:01;;;;;;;;;;;;;;;;;;4965763;28;19969;-89
2022/08/03 03:23:32;;;;;;;;;;;;;;;;;;4990631;28;19920;-93
2022/08/03 03:26:07;;;;;;;;;;;;;;;;;;4975543;28;19984;-94
2022/08/03 03:28:35;;;;;;;;;;;;;;;;;;5005449;28;19977;-91
2022/08/03 03:31:12;;;;;;;;;;;;;;;;;;4993732;28;19941;-91
2022/08/03 03:33:38;;;;;;;;;;;;;;;;;;4969609;28;19972;-89
2022/08/03 03:36:07;;;;;;;;;;;;;;;;;;4985928;28;19941;-91
2022/08/03 03:38:33;;;;;;;;;;;;;;;;;;4981067;28;19921;-91
2022/08/03 03:40:58;;;;;;;;;;;;;;;;;;4968213;28;19945;-92
2022/08/03 03:43:33;;;;;;;;;;;;;;;;;;5042761;28;20009;-91
2022/08/03 03:45:58;;;;;;;;;;;;;;;;;;4969241;28;19930;-89
2022/08/03 03:48:32;;;;;;;;;;;;;;;;;;4988735;28;19922;-89
2022/08/03 03:50:58;;;;;;;;;;;;;;;;;;4983189;28;19982;-90
2022/08/03 03:53:24;;;;;;;;;;;;;;;;;;5009457;28;19915;-90
2022/08/03 03:55:58;;;;;;;;;;;;;;;;;;4986049;28;20014;-90
2022/08/03 03:58:40;;;;;;;;;;;;;;;;;;4990187;28;19915;-90
2022/08/03 04:01:07;;;;;;;;;;;;;;;;;;4991514;28;19916;-90
2022/08/03 04:03:41;;;;;;;;;;;;;;;;;;4995606;28;19913;-90
2022/08/03 04:11:48;;;;;;;;;;;;;;;;;;4989603;28;19941;-90
2022/08/03 04:14:13;;;;;;;;;;;;;;;;;;4976409;28;20355;-92
2022/08/03 04:16:48;;;;;;;;;;;;;;;;;;4980437;28;19915;-93
2022/08/03 04:19:17;;;;;;;;;;;;;;;;;;4996933;28;19903;-94
2022/08/03 04:21:51;;;;;;;;;;;;;;;;;;4970282;28;19953;-92
2022/08/03 04:24:18;;;;;;;;;;;;;;;;;;4966052;28;19919;-91
2022/08/03 04:26:52;;;;;;;;;;;;;;;;;;4981113;28;19959;-93
2022/08/03 04:29:30;;;;;;;;;;;;;;;;;;4989101;28;19913;-92
2022/08/03 04:31:59;;;;;;;;;;;;;;;;;;4990663;28;20006;-91
2022/08/03 04:34:53;;;;;;;;;;;;;;;;;;4980225;28;19925;-90
2022/08/03 04:37:21;;;;;;;;;;;;;;;;;;4989102;28;19948;-91
2022/08/03 04:39:58;;;;;;;;;;;;;;;;;;4999594;28;19943;-93
2022/08/03 04:42:24;;;;;;;;;;;;;;;;;;5004167;28;20062;-91
2022/08/03 04:44:53;;;;;;;;;;;;;;;;;;4978688;28;19923;-92
2022/08/03 04:47:19;;;;;;;;;;;;;;;;;;4964884;28;20018;-93
2022/08/03 04:49:56;;;;;;;;;;;;;;;;;;4986725;28;19920;-93
2022/08/03 04:52:21;;;;;;;;;;;;;;;;;;4966636;28;20328;-92
2022/08/03 04:54:51;;;;;;;;;;;;;;;;;;4996608;28;20374;-95
2022/08/03 04:57:40;;;;;;;;;;;;;;;;;;4986617;28;19930;-93
2022/08/03 05:00:08;;;;;;;;;;;;;;;;;;4990737;28;20019;-95
2022/08/03 05:02:34;;;;;;;;;;;;;;;;;;4992395;28;19942;-93
2022/08/03 05:05:05;;;;;;;;;;;;;;;;;;4977273;28;19918;-93
2022/08/03 05:07:33;;;;;;;;;;;;;;;;;;4956477;28;19922;-91
2022/08/03 05:10:04;;;;;;;;;;;;;;;;;;4972916;28;20011;-91
2022/08/03 05:12:32;;;;;;;;;;;;;;;;;;4966753;28;19951;-94
2022/08/03 05:14:57;;;;;;;;;;;;;;;;;;4997644;28;19913;-93
2022/08/03 05:17:33;;;;;;;;;;;;;;;;;;4969333;28;19913;-93
2022/08/03 05:22:59;;;;;;;;;;;;;;;;;;4998003;28;19925;-92
2022/08/03 05:25:35;;;;;;;;;;;;;;;;;;4965698;28;19990;-90
2022/08/03 05:28:01;;;;;;;;;;;;;;;;;;4971749;28;19953;-93
2022/08/03 05:33:20;;;;;;;;;;;;;;;;;;4986168;28;19913;-90
2022/08/03 05:35:53;;;;;;;;;;;;;;;;;;4961254;28;19946;-94
2022/08/03 05:38:37;;;;;;;;;;;;;;;;;;4968103;28;20010;-90
2022/08/03 05:41:09;;;;;;;;;;;;;;;;;;4948590;29;19926;-92
2022/08/03 05:43:47;;;;;;;;;;;;;;;;;;4963867;29;19923;-93
2022/08/03 05:46:19;;;;;;;;;;;;;;;;;;4928958;28;19950;-92
2022/08/03 05:49:08;;;;;;;;;;;;;;;;;;4967040;28;19914;-92
2022/08/03 05:51:44;;;;;;;;;;;;;;;;;;4971100;28;20351;-92
2022/08/03 05:54:12;;;;;;;;;;;;;;;;;;4934890;28;19972;-91
2022/08/03 05:57:04;;;;;;;;;;;;;;;;;;4970799;28;19918;-91
2022/08/03 05:59:31;;;;;;;;;;;;;;;;;;4965195;28;19964;-93
2022/08/03 06:01:57;;;;;;;;;;;;;;;;;;4947593;28;19926;-91
2022/08/03 06:04:25;;;;;;;;;;;;;;;;;;4932210;28;19930;-90
2022/08/03 06:06:50;;;;;;;;;;;;;;;;;;4942987;28;19922;-90
2022/08/03 06:09:34;;;;;;;;;;;;;;;;;;4988414;28;20027;-89
2022/08/03 06:11:59;;;;;;;;;;;;;;;;;;4947427;28;19923;-90
2022/08/03 06:14:28;;;;;;;;;;;;;;;;;;4977343;28;20267;-92
2022/08/03 06:16:54;;;;;;;;;;;;;;;;;;4964629;28;19915;-90
2022/08/03 06:19:19;;;;;;;;;;;;;;;;;;4965062;28;19959;-91
2022/08/03 06:21:51;;;;;;;;;;;;;;;;;;4964473;28;20405;-91
2022/08/03 06:24:16;;;;;;;;;;;;;;;;;;4975483;28;19997;-92
2022/08/03 06:26:47;;;;;;;;;;;;;;;;;;4986079;28;19922;-91
2022/08/03 06:29:16;;;;;;;;;;;;;;;;;;4967789;28;19918;-91
2022/08/03 06:32:01;;;;;;;;;;;;;;;;;;4980468;28;20008;-89
2022/08/03 06:34:26;;;;;;;;;;;;;;;;;;4972119;28;19941;-90
2022/08/03 06:37:01;;;;;;;;;;;;;;;;;;4963501;28;19914;-90
2022/08/03 06:39:46;;;;;;;;;;;;;;;;;;4968715;28;19914;-89
2022/08/03 06:42:11;;;;;;;;;;;;;;;;;;4975990;28;20310;-91
2022/08/03 06:44:43;;;;;;;;;;;;;;;;;;4950845;28;20260;-90
2022/08/03 06:47:08;;;;;;;;;;;;;;;;;;4939064;28;19926;-95
2022/08/03 06:49:37;;;;;;;;;;;;;;;;;;4971862;28;19913;-91
2022/08/03 06:52:05;;;;;;;;;;;;;;;;;;4972731;28;19985;-91
2022/08/03 06:54:30;;;;;;;;;;;;;;;;;;4966175;28;20017;-91
2022/08/03 06:56:56;;;;;;;;;;;;;;;;;;4973956;28;19933;-88
2022/08/03 06:59:30;;;;;;;;;;;;;;;;;;4970747;28;20336;-92
2022/08/03 07:02:10;;;;;;;;;;;;;;;;;;4975643;28;19960;-88
2022/08/03 07:04:35;;;;;;;;;;;;;;;;;;4977434;28;20197;-89
2022/08/03 07:07:01;;;;;;;;;;;;;;;;;;5003337;28;19936;-91
2022/08/03 07:09:29;;;;;;;;;;;;;;;;;;4974346;28;19915;-90
2022/08/03 07:11:57;;;;;;;;;;;;;;;;;;4972984;28;19914;-92
2022/08/03 07:14:22;;;;;;;;;;;;;;;;;;5028176;28;20392;-92
2022/08/03 07:16:57;;;;;;;;;;;;;;;;;;4988691;28;19914;-93
2022/08/03 07:19:22;;;;;;;;;;;;;;;;;;4983277;28;19922;-92
2022/08/03 07:21:48;;;;;;;;;;;;;;;;;;4973564;28;19927;-93
2022/08/03 07:27:21;;;;;;;;;;;;;;;;;;4983144;28;19918;-92
2022/08/03 07:29:49;;;;;;;;;;;;;;;;;;5005000;28;20282;-92
2022/08/03 07:32:24;;;;;;;;;;;;;;;;;;4990471;28;19954;-90
2022/08/03 07:34:49;;;;;;;;;;;;;;;;;;4977657;28;19978;-90
2022/08/03 07:37:25;;;;;;;;;;;;;;;;;;4984810;28;19935;-90
2022/08/03 07:39:54;;;;;;;;;;;;;;;;;;5002164;28;19912;-90
2022/08/03 07:42:28;;;;;;;;;;;;;;;;;;4976005;28;19918;-90
2022/08/03 07:44:54;;;;;;;;;;;;;;;;;;4974322;28;19969;-90
2022/08/03 07:47:19;;;;;;;;;;;;;;;;;;4986494;28;19923;-91
2022/08/03 07:50:06;;;;;;;;;;;;;;;;;;4995226;28;19913;-92
2022/08/03 07:52:51;;;;;;;;;;;;;;;;;;4987899;28;20208;-92
2022/08/03 07:55:18;;;;;;;;;;;;;;;;;;4994558;28;19914;-91
2022/08/03 07:57:49;;;;;;;;;;;;;;;;;;4988270;28;19969;-91
2022/08/03 08:00:15;;;;;;;;;;;;;;;;;;4964306;28;19918;-92
2022/08/03 08:02:44;;;;;;;;;;;;;;;;;;4981312;28;19927;-91
2022/08/03 08:05:13;;;;;;;;;;;;;;;;;;4980592;28;19922;-90
2022/08/03 08:07:40;;;;;;;;;;;;;;;;;;4975241;28;19930;-91
2022/08/03 08:10:06;;;;;;;;;;;;;;;;;;4971420;28;19944;-93
2022/08/03 08:12:37;;;;;;;;;;;;;;;;;;5021989;28;19912;-92
2022/08/03 08:15:02;;;;;;;;;;;;;;;;;;4982024;28;19968;-92
2022/08/03 08:17:28;;;;;;;;;;;;;;;;;;5002127;28;19916;-89
2022/08/03 08:19:59;;;;;;;;;;;;;;;;;;4973789;28;19918;-89
2022/08/03 08:22:44;;;;;;;;;;;;;;;;;;4975639;28;19981;-91
2022/08/03 08:25:09;;;;;;;;;;;;;;;;;;4970314;28;19914;-92
2022/08/03 08:27:35;;;;;;;;;;;;;;;;;;4974171;28;19930;-89
2022/08/03 08:30:03;;;;;;;;;;;;;;;;;;4980171;28;19918;-91
2022/08/03 08:32:29;;;;;;;;;;;;;;;;;;4946529;28;19913;-91
2022/08/03 08:34:55;;;;;;;;;;;;;;;;;;4953498;28;19917;-91
2022/08/03 08:37:26;;;;;;;;;;;;;;;;;;4961668;28;19918;-92
2022/08/03 08:39:51;;;;;;;;;;;;;;;;;;5022742;28;20052;-93
2022/08/03 08:42:17;;;;;;;;;;;;;;;;;;4970242;28;19967;-92
2022/08/03 08:44:59;;;;;;;;;;;;;;;;;;4972503;28;20462;-89
2022/08/03 08:47:35;;;;;;;;;;;;;;;;;;4979040;28;20062;-90
2022/08/03 08:50:12;;;;;;;;;;;;;;;;;;4985877;28;19988;-90
2022/08/03 08:52:38;;;;;;;;;;;;;;;;;;4948847;28;19938;-91
2022/08/03 08:55:03;;;;;;;;;;;;;;;;;;4999808;28;19916;-92
2022/08/03 08:57:36;;;;;;;;;;;;;;;;;;4980033;28;19919;-91
2022/08/03 09:00:01;;;;;;;;;;;;;;;;;;4986480;28;20056;-91
2022/08/03 09:02:27;;;;;;;;;;;;;;;;;;4952055;28;20018;-87
2022/08/03 09:05:01;;;;;;;;;;;;;;;;;;4984159;28;20404;-91
2022/08/03 09:07:26;;;;;;;;;;;;;;;;;;5021092;28;19941;-92
2022/08/03 09:09:52;;;;;;;;;;;;;;;;;;4985448;28;19920;-92
2022/08/03 09:12:20;;;;;;;;;;;;;;;;;;4999841;28;19981;-92
2022/08/03 09:14:46;;;;;;;;;;;;;;;;;;4986867;28;20619;-91
2022/08/03 09:17:12;;;;;;;;;;;;;;;;;;5012322;28;19913;-92
2022/08/03 09:19:41;;;;;;;;;;;;;;;;;;5004246;28;19909;-91
2022/08/03 09:22:09;;;;;;;;;;;;;;;;;;4963375;28;19922;-91
2022/08/03 09:24:37;;;;;;;;;;;;;;;;;;4964582;28;19942;-92
2022/08/03 09:27:15;;;;;;;;;;;;;;;;;;4965980;28;19915;-92
2022/08/03 09:29:48;;;;;;;;;;;;;;;;;;4984486;28;19914;-89
2022/08/03 09:32:13;;;;;;;;;;;;;;;;;;4994076;28;19964;-89
2022/08/03 09:35:13;;;;;;;;;;;;;;;;;;5009548;28;19921;-91
2022/08/03 09:37:55;;;;;;;;;;;;;;;;;;4984720;28;19914;-90
2022/08/03 09:40:20;;;;;;;;;;;;;;;;;;4972414;28;19933;-89
2022/08/03 09:42:46;;;;;;;;;;;;;;;;;;5011647;28;19982;-92
2022/08/03 09:45:12;;;;;;;;;;;;;;;;;;4940561;28;19949;-92
2022/08/03 09:47:40;;;;;;;;;;;;;;;;;;5006668;28;19974;-90
2022/08/03 09:50:05;;;;;;;;;;;;;;;;;;4960425;28;20143;-89
2022/08/03 09:52:38;;;;;;;;;;;;;;;;;;4989096;28;19954;-89
2022/08/03 09:55:03;;;;;;;;;;;;;;;;;;4985338;28;19988;-91
2022/08/03 09:57:29;;;;;;;;;;;;;;;;;;4998456;28;20370;-92
2022/08/03 09:59:58;;;;;;;;;;;;;;;;;;4984886;28;19922;-90
2022/08/03 10:02:26;;;;;;;;;;;;;;;;;;4965582;28;20381;-92
2022/08/03 10:04:51;;;;;;;;;;;;;;;;;;4979534;28;19915;-90
2022/08/03 10:07:26;;;;;;;;;;;;;;;;;;4985500;28;19918;-92
2022/08/03 10:09:51;;;;;;;;;;;;;;;;;;4976605;28;19990;-91
2022/08/03 10:12:18;;;;;;;;;;;;;;;;;;4962260;28;19958;-91
2022/08/03 10:14:53;;;;;;;;;;;;;;;;;;4992158;28;19920;-91
2022/08/03 10:17:19;;;;;;;;;;;;;;;;;;4971086;28;19915;-91
2022/08/03 10:19:45;;;;;;;;;;;;;;;;;;4968569;28;19970;-91
2022/08/03 10:22:13;;;;;;;;;;;;;;;;;;4988554;28;19933;-89
2022/08/03 10:24:42;;;;;;;;;;;;;;;;;;4980473;28;20373;-93
2022/08/03 10:27:10;;;;;;;;;;;;;;;;;;5004344;28;19953;-91
2022/08/03 10:29:53;;;;;;;;;;;;;;;;;;4989300;28;19936;-89
2022/08/03 10:32:18;;;;;;;;;;;;;;;;;;4983476;28;19918;-93
2022/08/03 10:34:44;;;;;;;;;;;;;;;;;;4959464;28;20554;-92
2022/08/03 10:37:12;;;;;;;;;;;;;;;;;;4984467;28;19980;-91
2022/08/03 10:39:37;;;;;;;;;;;;;;;;;;4974862;28;19913;-91
2022/08/03 10:42:03;;;;;;;;;;;;;;;;;;4967753;28;19918;-91
2022/08/03 10:44:29;;;;;;;;;;;;;;;;;;4980214;28;19977;-90
2022/08/03 10:46:59;;;;;;;;;;;;;;;;;;4973893;28;19923;-90
2022/08/03 10:49:24;;;;;;;;;;;;;;;;;;5008399;28;20351;-92
2022/08/03 10:51:50;;;;;;;;;;;;;;;;;;4988204;28;19925;-91
2022/08/03 10:54:24;;;;;;;;;;;;;;;;;;4976927;28;19920;-90
2022/08/03 11:00:13;;;;;;;;;;;;;;;;;;;;;
2022/08/03 11:02:48;;;;;;;;;;;;;;;;;;4971869;28;19930;-90
2022/08/03 11:05:33;;;;;;;;;;;;;;;;;;4990107;28;19922;-90
2022/08/03 11:08:00;;;;;;;;;;;;;;;;;;4995079;28;20011;-89
2022/08/03 11:10:35;;;;;;;;;;;;;;;;;;4990050;28;20318;-93
2022/08/03 11:13:11;;;;;;;;;;;;;;;;;;4989318;28;19914;-92
2022/08/03 11:15:37;;;;;;;;;;;;;;;;;;4958014;28;20016;-92
2022/08/03 11:18:02;;;;;;;;;;;;;;;;;;4995934;28;19915;-91
2022/08/03 11:20:31;;;;;;;;;;;;;;;;;;4970866;28;19914;-92
2022/08/03 11:22:58;;;;;;;;;;;;;;;;;;4982458;28;19945;-91
2022/08/03 11:25:24;;;;;;;;;;;;;;;;;;4995888;28;19918;-93
2022/08/03 11:27:59;;;;;;;;;;;;;;;;;;4996578;28;19918;-91
2022/08/03 11:30:25;;;;;;;;;;;;;;;;;;4989568;28;19926;-91
2022/08/03 11:32:51;;;;;;;;;;;;;;;;;;4977345;28;19986;-92
2022/08/03 11:35:19;;;;;;;;;;;;;;;;;;4994976;28;20070;-89
2022/08/03 11:37:44;;;;;;;;;;;;;;;;;;4992256;28;20005;-88
2022/08/03 11:40:20;;;;;;;;;;;;;;;;;;5008104;28;19916;-90
2022/08/03 11:42:47;;;;;;;;;;;;;;;;;;4982438;28;20003;-92
2022/08/03 11:45:13;;;;;;;;;;;;;;;;;;5002020;28;19940;-91
2022/08/03 11:47:43;;;;;;;;;;;;;;;;;;4971072;28;19969;-90
2022/08/03 11:50:08;;;;;;;;;;;;;;;;;;5002848;28;19917;-91
2022/08/03 11:52:51;;;;;;;;;;;;;;;;;;4996981;28;19952;-94
2022/08/03 11:55:19;;;;;;;;;;;;;;;;;;4979886;28;19946;-89
2022/08/03 11:57:50;;;;;;;;;;;;;;;;;;4971922;28;19953;-88
2022/08/03 12:00:17;;;;;;;;;;;;;;;;;;4997176;28;20233;-92
2022/08/03 12:02:42;;;;;;;;;;;;;;;;;;4995289;28;19929;-92
2022/08/03 12:05:17;;;;;;;;;;;;;;;;;;4978520;28;19918;-90
2022/08/03 12:07:52;;;;;;;;;;;;;;;;;;5007176;28;19913;-92
2022/08/03 12:10:18;;;;;;;;;;;;;;;;;;4999491;28;19913;-91
2022/08/03 12:12:45;;;;;;;;;;;;;;;;;;5023786;28;20303;-91
2022/08/03 12:15:13;;;;;;;;;;;;;;;;;;4990121;28;20275;-91
2022/08/03 12:17:42;;;;;;;;;;;;;;;;;;4977624;28;19924;-93
2022/08/03 12:20:07;;;;;;;;;;;;;;;;;;4986981;28;19976;-89
2022/08/03 12:22:42;;;;;;;;;;;;;;;;;;4986187;28;20018;-91
2022/08/03 12:25:10;;;;;;;;;;;;;;;;;;4982368;28;20005;-93
2022/08/03 12:27:45;;;;;;;;;;;;;;;;;;4978110;28;19920;-91
2022/08/03 12:30:10;;;;;;;;;;;;;;;;;;4978757;28;19915;-92
2022/08/03 12:32:41;;;;;;;;;;;;;;;;;;4987561;28;19926;-93
2022/08/03 12:35:22;;;;;;;;;;;;;;;;;;5017717;28;19972;-92
2022/08/03 12:37:47;;;;;;;;;;;;;;;;;;4977325;28;20295;-90
2022/08/03 12:40:14;;;;;;;;;;;;;;;;;;5011954;28;19952;-94
2022/08/03 12:42:57;;;;;;;;;;;;;;;;;;4975097;28;19914;-90
2022/08/03 12:45:35;;;;;;;;;;;;;;;;;;4957136;28;20343;-88
2022/08/03 12:48:10;;;;;;;;;;;;;;;;;;4972706;28;20255;-92
2022/08/03 12:50:36;;;;;;;;;;;;;;;;;;4990812;28;19945;-91
2022/08/03 12:53:01;;;;;;;;;;;;;;;;;;4986288;28;19910;-90
2022/08/03 12:55:33;;;;;;;;;;;;;;;;;;5003440;28;19955;-91
2022/08/03 12:57:58;;;;;;;;;;;;;;;;;;4993098;28;19912;-91
2022/08/03 13:00:26;;;;;;;;;;;;;;;;;;5018693;28;19916;-90
2022/08/03 13:02:54;;;;;;;;;;;;;;;;;;4996954;28;19999;-91
2022/08/03 13:05:20;;;;;;;;;;;;;;;;;;4982205;28;19939;-90
2022/08/03 13:07:47;;;;;;;;;;;;;;;;;;4988634;28;19941;-91
2022/08/03 13:10:19;;;;;;;;;;;;;;;;;;4973851;28;19965;-91
2022/08/03 13:12:44;;;;;;;;;;;;;;;;;;4995653;28;20523;-90
2022/08/03 13:15:18;;;;;;;;;;;;;;;;;;4985046;28;19957;-90
2022/08/03 13:17:43;;;;;;;;;;;;;;;;;;4975192;28;19918;-92
2022/08/03 13:20:12;;;;;;;;;;;;;;;;;;4985998;28;19910;-91
2022/08/03 13:22:42;;;;;;;;;;;;;;;;;;4990520;28;20035;-91
2022/08/03 13:25:26;;;;;;;;;;;;;;;;;;5053731;28;19917;-90
2022/08/03 13:27:53;;;;;;;;;;;;;;;;;;5054936;28;19920;-94
2022/08/03 13:30:28;;;;;;;;;;;;;;;;;;5054253;28;20016;-91
2022/08/03 13:32:54;;;;;;;;;;;;;;;;;;5062867;28;19913;-94
2022/08/03 13:35:20;;;;;;;;;;;;;;;;;;5059016;28;19951;-93
2022/08/03 13:37:53;;;;;;;;;;;;;;;;;;5049114;28;20028;-92
2022/08/03 13:40:20;;;;;;;;;;;;;;;;;;5048681;28;20031;-90
2022/08/03 13:42:48;;;;;;;;;;;;;;;;;;5043999;28;19976;-89
2022/08/03 13:45:13;;;;;;;;;;;;;;;;;;5036989;28;19931;-90
2022/08/03 13:47:39;;;;;;;;;;;;;;;;;;5025725;28;19913;-91
2022/08/03 13:50:04;;;;;;;;;;;;;;;;;;5039103;28;20036;-88
2022/08/03 13:52:32;;;;;;;;;;;;;;;;;;5038853;28;20046;-89
2022/08/03 13:54:58;;;;;;;;;;;;;;;;;;5036591;28;19940;-90
2022/08/03 13:57:24;;;;;;;;;;;;;;;;;;4971304;28;20565;-91
2022/08/03 14:00:09;;;;;;;;;;;;;;;;;;4958519;28;19923;-92
2022/08/03 14:02:37;;;;;;;;;;;;;;;;;;4942718;28;19998;-92
2022/08/03 14:05:02;;;;;;;;;;;;;;;;;;4934586;28;19926;-93
2022/08/03 14:07:27;;;;;;;;;;;;;;;;;;4945401;28;19919;-92
2022/08/03 14:10:00;;;;;;;;;;;;;;;;;;4942023;28;19926;-88
2022/08/03 14:12:28;;;;;;;;;;;;;;;;;;4935165;28;19972;-89
2022/08/03 14:14:53;;;;;;;;;;;;;;;;;;4956406;28;20000;-93
2022/08/03 14:17:27;;;;;;;;;;;;;;;;;;4926899;28;20295;-91
2022/08/03 14:19:53;;;;;;;;;;;;;;;;;;4939944;28;19997;-91
2022/08/03 14:22:24;;;;;;;;;;;;;;;;;;4933404;28;19919;-89
2022/08/03 14:24:50;;;;;;;;;;;;;;;;;;4918991;28;19915;-91
2022/08/03 14:27:15;;;;;;;;;;;;;;;;;;4931443;28;19925;-92
2022/08/03 14:29:41;;;;;;;;;;;;;;;;;;4919705;28;19919;-91
2022/08/03 14:32:09;;;;;;;;;;;;;;;;;;4986179;28;19913;-91
2022/08/03 14:34:34;;;;;;;;;;;;;;;;;;4927110;28;19935;-92
2022/08/03 14:36:59;;;;;;;;;;;;;;;;;;4924350;28;19958;-91
2022/08/03 14:39:25;;;;;;;;;;;;;;;;;;4958670;28;19930;-91
2022/08/03 14:41:59;;;;;;;;;;;;;;;;;;4939220;28;19970;-91
2022/08/03 14:44:24;;;;;;;;;;;;;;;;;;4919729;28;19942;-92
2022/08/03 14:46:52;;;;;;;;;;;;;;;;;;4971501;28;19933;-87
2022/08/03 14:49:22;;;;;;;;;;;;;;;;;;4988073;28;19917;-91
2022/08/03 14:51:47;;;;;;;;;;;;;;;;;;4973858;28;19972;-92
2022/08/03 14:54:22;;;;;;;;;;;;;;;;;;4980789;28;19965;-89
2022/08/03 14:56:47;;;;;;;;;;;;;;;;;;4983654;28;19922;-91
2022/08/03 14:59:12;;;;;;;;;;;;;;;;;;4979730;28;19920;-92
2022/08/03 15:01:48;;;;;;;;;;;;;;;;;;4989295;28;19981;-92
2022/08/03 15:04:13;;;;;;;;;;;;;;;;;;4992689;28;19921;-94
2022/08/03 15:06:42;;;;;;;;;;;;;;;;;;4967161;28;19982;-88
2022/08/03 15:09:28;;;;;;;;;;;;;;;;;;4968062;28;19998;-91
2022/08/03 15:11:56;;;;;;;;;;;;;;;;;;4941476;28;19934;-91
2022/08/03 15:14:24;;;;;;;;;;;;;;;;;;4953485;28;19914;-92
2022/08/03 15:16:51;;;;;;;;;;;;;;;;;;4959173;28;19910;-92
2022/08/03 15:19:17;;;;;;;;;;;;;;;;;;5016838;28;20335;-93
2022/08/03 15:21:48;;;;;;;;;;;;;;;;;;5002447;28;19977;-92
2022/08/03 15:24:13;;;;;;;;;;;;;;;;;;4947178;28;19925;-91
2022/08/03 15:26:38;;;;;;;;;;;;;;;;;;4989292;28;19913;-92
2022/08/03 15:29:04;;;;;;;;;;;;;;;;;;4967742;28;20497;-92
2022/08/03 15:31:37;;;;;;;;;;;;;;;;;;5030490;28;19945;-92
2022/08/03 15:34:02;;;;;;;;;;;;;;;;;;5022623;28;19920;-93
2022/08/03 15:36:38;;;;;;;;;;;;;;;;;;4984155;28;19986;-91
2022/08/03 15:42:36;;;;;;;;;;;;;;;;;;4948999;28;19919;-89
2022/08/03 15:45:04;;;;;;;;;;;;;;;;;;4999101;28;19914;-91
2022/08/03 15:47:31;;;;;;;;;;;;;;;;;;4975163;28;20300;-90
2022/08/03 15:49:56;;;;;;;;;;;;;;;;;;4969354;28;19924;-92
2022/08/03 15:52:26;;;;;;;;;;;;;;;;;;4990514;28;20006;-92
2022/08/03 15:54:52;;;;;;;;;;;;;;;;;;5009659;28;20308;-92
2022/08/03 15:57:25;;;;;;;;;;;;;;;;;;5007052;28;19954;-95
2022/08/03 15:59:50;;;;;;;;;;;;;;;;;;4962757;28;20340;-93
2022/08/03 16:02:16;;;;;;;;;;;;;;;;;;4983336;28;19920;-93
2022/08/03 16:04:43;;;;;;;;;;;;;;;;;;4995244;28;19954;-90
2022/08/03 16:07:11;;;;;;;;;;;;;;;;;;4999748;28;19923;-91
2022/08/03 16:09:37;;;;;;;;;;;;;;;;;;4995002;28;19918;-92
2022/08/03 16:12:08;;;;;;;;;;;;;;;;;;4990147;28;19944;-89
2022/08/03 16:14:34;;;;;;;;;;;;;;;;;;4984533;28;19914;-92
2022/08/03 16:16:59;;;;;;;;;;;;;;;;;;4978487;28;20298;-92
2022/08/03 16:19:43;;;;;;;;;;;;;;;;;;4991983;28;19914;-92
2022/08/03 16:22:09;;;;;;;;;;;;;;;;;;4993663;28;19968;-91
2022/08/03 16:24:45;;;;;;;;;;;;;;;;;;4982225;28;19930;-92
2022/08/03 16:27:13;;;;;;;;;;;;;;;;;;4961446;28;19922;-91
2022/08/03 16:29:39;;;;;;;;;;;;;;;;;;5001560;28;19978;-91
2022/08/03 16:32:08;;;;;;;;;;;;;;;;;;4983316;28;20441;-90
2022/08/03 16:34:34;;;;;;;;;;;;;;;;;;4984594;28;19945;-91
2022/08/03 16:37:02;;;;;;;;;;;;;;;;;;5047810;28;20024;-92
2022/08/03 16:39:28;;;;;;;;;;;;;;;;;;4984514;28;19918;-90
2022/08/03 16:44:42;;;;;;;;;;;;;;;;;;4974085;28;20025;-90
2022/08/03 16:47:08;;;;;;;;;;;;;;;;;;5009731;28;19955;-92
2022/08/03 16:49:33;;;;;;;;;;;;;;;;;;4972951;28;19914;-88
2022/08/03 16:52:08;;;;;;;;;;;;;;;;;;4993014;28;20028;-89
2022/08/03 16:55:26;;;;;;;;;;;;;;;;;;4985459;28;19924;-90
2022/08/03 16:57:55;;;;;;;;;;;;;;;;;;4987243;28;19915;-88
2022/08/03 17:00:30;;;;;;;;;;;;;;;;;;4981701;28;19915;-88
2022/08/03 17:02:57;;;;;;;;;;;;;;;;;;4964639;28;20331;-92
2022/08/03 17:05:22;;;;;;;;;;;;;;;;;;4980788;28;19926;-91
2022/08/03 17:07:57;;;;;;;;;;;;;;;;;;4991851;28;19921;-90
2022/08/03 17:10:23;;;;;;;;;;;;;;;;;;4986940;28;20001;-91
2022/08/03 17:13:14;;;;;;;;;;;;;;;;;;4986797;28;20287;-92
2022/08/03 17:15:48;;;;;;;;;;;;;;;;;;4980860;28;19945;-90
2022/08/03 17:18:29;;;;;;;;;;;;;;;;;;4982093;28;19915;-92
2022/08/03 17:20:55;;;;;;;;;;;;;;;;;;4982282;28;19922;-89
2022/08/03 17:26:09;;;;;;;;;;;;;;;;;;5010085;28;19915;-89
2022/08/03 17:31:42;;;;;;;;;;;;;;;;;;5013970;28;20270;-88